Clyde, NC (28721)

6:54 AM EDT on May 26, 2015 (GMT -0400)
RAWS | | Change Station
CLOSE
Current Station
Personal Weather Station
Location: Clyde, NC
Elevation: 5291 ft
Nearby Weather Stations

Elev 5291 ft 35.65 °N, 82.91 °W | Updated 51 minutes ago

Overcast
Overcast
56 °F
Feels Like 56 °F
N
13
Wind Variable Wind from WSW
Gusts 21.0 mph

Today
High -- | Low -- °F
--% Chance of Precip.
Yesterday
High -- | Low -- °F
Precip. -- in
6:20 AM 8:37 PM
First Quarter, 57% visible
Pressure 30.31 in
Visibility 10.0 miles
Clouds Few 800 ft
Mostly Cloudy 1400 ft
Overcast 2900 ft
Dew Point 56 °F
Humidity 100%
Rainfall in
Snow Depth Not available.
UV 0 out of 12
Pollen 6.90 out of 12
Air Quality Not available.
Flu Activity No Activity
SPECI KAVL 261046Z 19006KT 10SM FEW008 BKN014 OVC029 19/17 A3031 RMK AO2 RAE32 P0001 T01890172 $

More Conditions Fewer Conditions

Pressure 30.31 in
Visibility 10.0 miles
Clouds Few 800 ft
Mostly Cloudy 1400 ft
Overcast 2900 ft
Dew Point 56 °F
Humidity 100%
Rainfall in
Snow Depth Not available.
UV 0 out of 12
Pollen 6.90 out of 12
Air Quality Not available.
Flu Activity No Activity
SPECI KAVL 261046Z 19006KT 10SM FEW008 BKN014 OVC029 19/17 A3031 RMK AO2 RAE32 P0001 T01890172 $

More Conditions Fewer Conditions

10-Day Weather Forecast

Almanac

Astronomy

May. 26, 2015 Rise Set
Actual Time
Civil Twilight
Nautical Twilight
Astronomical Twilight
Moon
Length of Visible Light
Length of Day
Tomorrow will be .
, % of the Moon is Illuminated

Today's Extremes

State Highs State Lows

Community

WunderPhotos

Upload Photos

1,824,305 photos uploaded!

WunderBlogs® & News

Nearby

Air Quality

  Air Quality AQ Index Pollutant
Not available.

Snow Depth

Station Depth Elevation

Earthquake Activity

City Distance Mag. Time & Date
Minimum magnitude displayed is 2.5.

Coastal Water Temperatures

Place Temperature

Stations

Nearby Weather Stations

Station Location Temp. Windchill Dew Point Humidity Wind Precip. Elev Updated Type